createdAt,value
2023-02-17T00:00:59.205Z,17.90
2023-02-17T00:03:26.621Z,16.33
2023-02-17T00:05:53.513Z,13.03
2023-02-17T00:08:23.495Z,16.37
2023-02-17T00:10:58.510Z,14.73
2023-02-17T00:13:25.270Z,18.17
2023-02-17T00:15:52.267Z,15.17
2023-02-17T00:18:19.393Z,14.77
2023-02-17T00:20:46.040Z,15.77
2023-02-17T00:23:12.660Z,13.67
2023-02-17T00:25:39.399Z,16.37
2023-02-17T00:28:06.423Z,13.83
2023-02-17T00:30:33.295Z,13.40
2023-02-17T00:33:00.267Z,12.33
2023-02-17T00:35:26.948Z,19.53
2023-02-17T00:37:53.576Z,13.57
2023-02-17T00:40:21.165Z,15.37
2023-02-17T00:42:48.890Z,15.47
2023-02-17T00:45:15.638Z,12.37
2023-02-17T00:47:42.243Z,12.90
2023-02-17T00:50:09.296Z,10.63
2023-02-17T00:52:35.995Z,13.07
2023-02-17T00:55:02.742Z,12.33
2023-02-17T00:57:32.180Z,11.20
2023-02-17T00:59:59.003Z,11.80
2023-02-17T01:02:25.655Z,18.47
2023-02-17T01:04:52.853Z,13.53
2023-02-17T01:07:19.484Z,13.93
2023-02-17T01:09:46.114Z,11.43
2023-02-17T01:12:13.225Z,13.00
2023-02-17T01:14:39.849Z,12.53
2023-02-17T01:17:06.544Z,11.73
2023-02-17T01:19:33.203Z,9.30
2023-02-17T01:21:59.833Z,9.20
2023-02-17T01:24:26.461Z,10.00
2023-02-17T01:26:55.962Z,10.50
2023-02-17T01:29:22.662Z,7.93
2023-02-17T01:31:49.306Z,9.97
2023-02-17T01:34:15.929Z,8.80
2023-02-17T01:36:42.539Z,10.30
2023-02-17T01:39:13.017Z,10.10
2023-02-17T01:41:39.618Z,13.00
2023-02-17T01:44:26.551Z,8.13
2023-02-17T01:46:54.957Z,8.67
2023-02-17T01:49:35.247Z,8.00
2023-02-17T01:52:10.111Z,9.33
2023-02-17T01:54:40.334Z,9.43
2023-02-17T01:57:07.127Z,11.33
2023-02-17T01:59:33.959Z,8.00
2023-02-17T02:02:07.094Z,10.40
2023-02-17T02:04:39.035Z,7.97
2023-02-17T02:07:10.437Z,9.70
2023-02-17T02:09:40.963Z,7.00
2023-02-17T02:12:22.743Z,9.30
2023-02-17T02:14:50.103Z,7.27
2023-02-17T02:17:40.072Z,9.30
2023-02-17T02:20:24.738Z,7.47
2023-02-17T02:23:20.817Z,7.03
2023-02-17T02:26:11.352Z,8.80
2023-02-17T02:28:43.693Z,9.00
2023-02-17T02:31:21.292Z,6.03
2023-02-17T02:33:56.827Z,6.67
2023-02-17T02:36:26.571Z,9.30
2023-02-17T02:39:01.489Z,7.20
2023-02-17T02:41:33.926Z,7.57
2023-02-17T02:44:06.775Z,8.37
2023-02-17T02:46:33.488Z,8.27
2023-02-17T02:49:01.279Z,6.80
2023-02-17T02:51:40.476Z,7.73
2023-02-17T02:54:23.603Z,5.83
2023-02-17T02:57:25.271Z,8.57
2023-02-17T03:00:06.842Z,6.13
2023-02-17T03:02:52.433Z,10.67
2023-02-17T03:05:36.996Z,5.73
2023-02-17T03:08:17.520Z,5.77
2023-02-17T03:10:54.058Z,7.10
2023-02-17T03:13:20.818Z,9.87
2023-02-17T03:15:48.532Z,10.20
2023-02-17T03:18:15.544Z,6.33
2023-02-17T03:20:57.375Z,6.60
2023-02-17T03:23:24.022Z,6.17
2023-02-17T03:25:50.753Z,5.93
2023-02-17T03:28:18.499Z,6.30
2023-02-17T03:30:45.304Z,5.73
2023-02-17T03:33:11.993Z,9.13
2023-02-17T03:35:38.618Z,6.53
2023-02-17T03:38:05.330Z,9.10
2023-02-17T03:40:32.005Z,7.07
2023-02-17T03:42:58.747Z,5.90
2023-02-17T03:45:25.707Z,6.47
2023-02-17T03:47:52.365Z,8.80
2023-02-17T03:50:19.015Z,6.87
2023-02-17T03:52:46.297Z,6.60
2023-02-17T03:55:14.358Z,5.83
2023-02-17T03:57:40.994Z,5.90
2023-02-17T04:00:08.296Z,4.90
2023-02-17T04:02:35.027Z,6.60
2023-02-17T04:05:01.874Z,6.57
2023-02-17T04:07:28.613Z,7.33
2023-02-17T04:09:55.240Z,6.43
2023-02-17T04:12:21.847Z,7.50
2023-02-17T04:14:48.448Z,6.30
2023-02-17T04:17:15.054Z,6.57
2023-02-17T04:19:41.659Z,7.37
2023-02-17T04:22:08.963Z,8.63
2023-02-17T04:24:37.067Z,4.40
2023-02-17T04:27:05.241Z,9.77
2023-02-17T04:29:35.301Z,7.37
2023-02-17T04:32:02.116Z,5.13
2023-02-17T04:34:28.854Z,4.80
2023-02-17T04:36:55.515Z,7.33
2023-02-17T04:39:22.157Z,7.33
2023-02-17T04:41:48.841Z,5.47
2023-02-17T04:44:15.438Z,5.30
2023-02-17T04:46:42.150Z,6.73
2023-02-17T04:49:08.794Z,8.40
2023-02-17T04:51:35.442Z,6.67
2023-02-17T04:54:02.104Z,4.77
2023-02-17T04:56:28.702Z,5.20
2023-02-17T04:58:55.381Z,4.93
2023-02-17T05:01:22.132Z,6.07
2023-02-17T05:03:48.798Z,5.60
2023-02-17T05:06:15.480Z,6.23
2023-02-17T05:08:42.118Z,6.33
2023-02-17T05:11:08.767Z,8.13
2023-02-17T05:13:35.369Z,6.33
2023-02-17T05:16:02.361Z,4.43
2023-02-17T05:18:28.996Z,7.33
2023-02-17T05:20:55.676Z,5.57
2023-02-17T05:23:22.472Z,6.20
2023-02-17T05:25:49.060Z,4.40
2023-02-17T05:28:15.686Z,11.53
2023-02-17T05:30:42.330Z,9.83
2023-02-17T05:33:08.955Z,8.87
2023-02-17T05:35:36.458Z,5.17
2023-02-17T05:38:03.075Z,8.93
2023-02-17T05:40:30.785Z,6.93
2023-02-17T05:42:57.387Z,5.03
2023-02-17T05:45:23.979Z,6.67
2023-02-17T05:47:50.627Z,6.23
2023-02-17T05:50:17.358Z,6.67
2023-02-17T05:52:44.006Z,5.40
2023-02-17T05:55:10.668Z,6.33
2023-02-17T05:57:37.339Z,4.97
2023-02-17T06:00:05.338Z,6.80
2023-02-17T06:02:31.947Z,7.80
2023-02-17T06:04:58.679Z,6.70
2023-02-17T06:07:25.404Z,5.03
2023-02-17T06:09:52.015Z,5.63
2023-02-17T06:12:18.626Z,4.93
2023-02-17T06:14:45.417Z,5.13
2023-02-17T06:17:12.057Z,6.80
2023-02-17T06:19:38.692Z,6.90
2023-02-17T06:22:05.373Z,5.40
2023-02-17T06:24:31.986Z,9.37
2023-02-17T06:26:58.720Z,7.17
2023-02-17T06:29:25.428Z,5.37
2023-02-17T06:31:52.113Z,4.30
2023-02-17T06:34:18.876Z,8.40
2023-02-17T06:36:45.607Z,6.70
2023-02-17T06:39:12.257Z,5.53
2023-02-17T06:41:38.966Z,5.77
2023-02-17T06:44:05.585Z,5.20
2023-02-17T06:46:32.196Z,4.50
2023-02-17T06:49:00.073Z,5.27
2023-02-17T06:51:27.135Z,3.40
2023-02-17T06:53:54.255Z,4.23
2023-02-17T06:56:21.262Z,5.50
2023-02-17T06:58:48.262Z,4.63
2023-02-17T07:01:26.388Z,4.83
2023-02-17T07:03:54.469Z,6.97
2023-02-17T07:06:21.803Z,5.13
2023-02-17T07:08:48.828Z,6.47
2023-02-17T07:11:16.639Z,6.80
2023-02-17T07:13:43.643Z,5.03
2023-02-17T07:16:13.147Z,7.57
2023-02-17T07:18:39.900Z,6.10
2023-02-17T07:21:09.037Z,6.37
2023-02-17T07:23:36.520Z,5.40
2023-02-17T07:26:05.484Z,4.87
2023-02-17T07:28:32.413Z,6.00
2023-02-17T07:31:14.841Z,3.00
2023-02-17T07:33:42.596Z,3.37
2023-02-17T07:36:14.644Z,3.87
2023-02-17T07:38:42.113Z,10.20
2023-02-17T07:41:14.167Z,2.33
2023-02-17T07:43:41.227Z,4.33
2023-02-17T07:46:09.419Z,7.73
2023-02-17T07:48:36.591Z,7.43
2023-02-17T07:51:11.601Z,4.37
2023-02-17T07:53:38.954Z,3.53
2023-02-17T07:56:07.796Z,4.40
2023-02-17T07:58:36.172Z,3.53
2023-02-17T08:01:10.361Z,4.07
2023-02-17T08:03:37.298Z,3.60
2023-02-17T08:06:05.093Z,3.37
2023-02-17T08:08:50.745Z,5.03
2023-02-17T08:11:36.128Z,3.77
2023-02-17T08:14:03.045Z,4.80
2023-02-17T08:16:29.688Z,5.43
2023-02-17T08:18:56.483Z,3.20
2023-02-17T08:21:24.968Z,2.73
2023-02-17T08:23:51.707Z,5.00
2023-02-17T08:26:19.306Z,3.43
2023-02-17T08:28:45.974Z,3.93
2023-02-17T08:31:26.204Z,7.07
2023-02-17T08:33:53.388Z,5.47
2023-02-17T08:36:22.177Z,7.00
2023-02-17T08:38:51.215Z,3.23
2023-02-17T08:41:31.516Z,3.10
2023-02-17T08:44:00.470Z,2.77
2023-02-17T08:46:28.462Z,4.93
2023-02-17T08:48:56.281Z,4.93
2023-02-17T08:51:26.039Z,3.60
2023-02-17T08:53:56.707Z,3.50
2023-02-17T08:56:24.725Z,3.87
2023-02-17T08:58:51.964Z,2.30
2023-02-17T09:01:19.179Z,2.50
2023-02-17T09:03:48.312Z,4.10
2023-02-17T09:06:15.736Z,2.57
2023-02-17T09:08:42.982Z,4.00
2023-02-17T09:11:10.130Z,4.33
2023-02-17T09:13:37.187Z,3.43
2023-02-17T09:16:05.189Z,3.90
2023-02-17T09:18:32.252Z,2.70
2023-02-17T09:21:00.472Z,3.20
2023-02-17T09:23:27.452Z,3.93
2023-02-17T09:26:11.504Z,4.10
2023-02-17T09:28:39.377Z,2.50
2023-02-17T09:31:16.750Z,2.47
2023-02-17T09:33:43.944Z,2.67
2023-02-17T09:36:20.312Z,3.23
2023-02-17T09:38:48.035Z,4.43
2023-02-17T09:41:17.428Z,4.77
2023-02-17T09:43:45.028Z,3.63
2023-02-17T09:46:29.210Z,3.10
2023-02-17T09:49:01.475Z,4.33
2023-02-17T09:51:34.439Z,3.47
2023-02-17T09:54:29.540Z,3.00
2023-02-17T09:56:58.294Z,4.33
2023-02-17T09:59:32.216Z,3.17
2023-02-17T10:02:00.038Z,2.67
2023-02-17T10:04:37.599Z,2.63
2023-02-17T10:07:17.707Z,2.93
2023-02-17T10:10:08.343Z,3.30
2023-02-17T10:12:39.311Z,3.07
2023-02-17T10:15:13.850Z,2.67
2023-02-17T10:18:04.864Z,4.00
2023-02-17T10:20:57.318Z,2.73
2023-02-17T10:23:26.866Z,4.50
2023-02-17T10:26:31.042Z,2.50
2023-02-17T10:29:14.374Z,3.37
2023-02-17T10:32:04.767Z,2.33
2023-02-17T10:34:42.915Z,4.23
2023-02-17T10:37:16.684Z,2.20
2023-02-17T10:39:52.399Z,3.33
2023-02-17T10:42:25.805Z,1.87
2023-02-17T10:44:56.467Z,1.90
2023-02-17T10:47:23.224Z,3.53
2023-02-17T10:49:55.948Z,2.40
2023-02-17T10:52:28.141Z,1.80
2023-02-17T10:54:59.856Z,2.23
2023-02-17T10:57:32.955Z,3.10
2023-02-17T10:59:59.640Z,1.90
2023-02-17T11:02:48.338Z,2.00
2023-02-17T11:05:29.993Z,5.73
2023-02-17T11:08:00.833Z,1.90
2023-02-17T11:10:29.343Z,2.00
2023-02-17T11:12:58.524Z,1.57
2023-02-17T11:15:44.925Z,1.70
2023-02-17T11:18:20.994Z,2.00
2023-02-17T11:20:48.542Z,1.60
2023-02-17T11:23:15.781Z,1.50
2023-02-17T11:25:43.867Z,1.60
2023-02-17T11:28:24.150Z,1.97
2023-02-17T11:31:20.755Z,2.53
2023-02-17T11:33:47.653Z,1.40
2023-02-17T11:36:32.253Z,2.90
2023-02-17T11:39:00.825Z,1.43
2023-02-17T11:41:27.469Z,1.67
2023-02-17T11:43:59.178Z,1.73
2023-02-17T11:47:09.486Z,1.60
2023-02-17T11:49:50.756Z,1.57
2023-02-17T11:52:32.286Z,1.80
2023-02-17T11:55:14.749Z,2.13
2023-02-17T11:57:47.311Z,2.80
2023-02-17T12:00:32.465Z,3.47
2023-02-17T12:03:31.737Z,2.67
2023-02-17T12:06:35.741Z,2.83
2023-02-17T12:09:27.282Z,1.80
2023-02-17T12:12:20.307Z,1.63
2023-02-17T12:15:02.990Z,1.50
2023-02-17T12:17:44.896Z,2.90
2023-02-17T12:20:20.528Z,1.50
2023-02-17T12:23:03.857Z,1.50
2023-02-17T12:25:55.792Z,1.57
2023-02-17T12:28:59.341Z,1.93
2023-02-17T12:31:41.140Z,0.93
2023-02-17T12:34:33.721Z,0.83
2023-02-17T12:37:01.052Z,1.60
2023-02-17T12:39:55.153Z,1.20
2023-02-17T12:42:30.363Z,1.23
2023-02-17T12:45:21.108Z,1.80
2023-02-17T12:48:25.985Z,1.03
2023-02-17T12:51:06.954Z,1.13
2023-02-17T12:53:46.452Z,1.00
2023-02-17T12:56:33.301Z,1.20
2023-02-17T12:59:12.245Z,1.13
2023-02-17T13:01:51.848Z,1.27
2023-02-17T13:04:20.841Z,1.40
2023-02-17T13:06:54.970Z,1.00
2023-02-17T13:09:45.968Z,1.27
2023-02-17T13:12:24.947Z,1.20
2023-02-17T13:14:57.317Z,1.53
2023-02-17T13:17:38.032Z,1.20
2023-02-17T13:20:12.089Z,2.47
2023-02-17T13:22:40.591Z,2.30
2023-02-17T13:25:11.504Z,1.10
2023-02-17T13:27:40.177Z,1.50
2023-02-17T13:30:22.185Z,1.70
2023-02-17T13:33:02.052Z,1.40
2023-02-17T13:35:36.043Z,1.33
2023-02-17T13:38:03.623Z,3.87
2023-02-17T13:40:30.416Z,1.60
2023-02-17T13:43:07.738Z,2.33
2023-02-17T13:45:43.151Z,3.33
2023-02-17T13:48:14.678Z,1.93
2023-02-17T13:50:50.728Z,2.30
2023-02-17T13:53:20.875Z,1.63
2023-02-17T13:55:47.608Z,1.40
2023-02-17T13:58:14.348Z,1.83
2023-02-17T14:00:43.725Z,3.30
2023-02-17T14:03:24.475Z,2.77
2023-02-17T14:05:54.000Z,3.73
2023-02-17T14:08:38.026Z,1.60
2023-02-17T14:11:08.895Z,1.47
2023-02-17T14:13:37.406Z,1.87
2023-02-17T14:16:06.903Z,2.23
2023-02-17T14:18:39.596Z,1.40
2023-02-17T14:21:12.513Z,2.27
2023-02-17T14:23:49.052Z,1.33
2023-02-17T14:26:28.048Z,1.40
2023-02-17T14:28:57.469Z,1.73
2023-02-17T14:31:24.950Z,1.20
2023-02-17T14:33:57.242Z,1.30
2023-02-17T14:36:38.887Z,1.87
2023-02-17T14:39:08.561Z,1.30
2023-02-17T14:41:35.404Z,1.30
2023-02-17T14:44:02.046Z,1.13
2023-02-17T14:46:30.161Z,1.53
2023-02-17T14:48:56.929Z,1.57
2023-02-17T14:51:26.369Z,1.27
2023-02-17T14:53:53.241Z,2.43
2023-02-17T14:56:40.314Z,1.23
2023-02-17T14:59:07.026Z,1.30
2023-02-17T15:01:33.741Z,1.20
2023-02-17T15:04:01.952Z,1.00
2023-02-17T15:06:56.035Z,1.33
2023-02-17T15:09:30.626Z,1.00
2023-02-17T15:11:58.415Z,1.13
2023-02-17T15:14:28.256Z,0.90
2023-02-17T15:16:54.925Z,0.83
2023-02-17T15:19:21.818Z,0.90
2023-02-17T15:21:51.242Z,0.90
2023-02-17T15:24:22.167Z,1.10
2023-02-17T15:26:48.827Z,0.80
2023-02-17T15:29:18.524Z,1.33
2023-02-17T15:31:46.035Z,1.30
2023-02-17T15:34:19.271Z,1.10
2023-02-17T15:36:47.392Z,0.90
2023-02-17T15:39:16.802Z,1.00
2023-02-17T15:41:44.701Z,1.27
2023-02-17T15:44:22.378Z,1.27
2023-02-17T15:46:52.451Z,0.90
2023-02-17T15:49:19.184Z,1.47
2023-02-17T15:51:45.858Z,1.17
2023-02-17T15:54:13.126Z,1.13
2023-02-17T15:56:51.094Z,1.23
2023-02-17T15:59:26.863Z,1.23
2023-02-17T16:01:56.043Z,2.20
2023-02-17T16:04:22.809Z,0.80
2023-02-17T16:06:50.644Z,1.40
2023-02-17T16:09:19.924Z,1.40
2023-02-17T16:11:52.846Z,1.87
2023-02-17T16:14:39.787Z,1.10
2023-02-17T16:17:14.324Z,1.43
2023-02-17T16:19:40.962Z,1.30
2023-02-17T16:22:07.710Z,1.47
2023-02-17T16:24:34.485Z,2.33
2023-02-17T16:27:01.527Z,1.47
2023-02-17T16:29:28.191Z,0.90
2023-02-17T16:31:55.862Z,2.00
2023-02-17T16:34:24.469Z,1.17
2023-02-17T16:36:53.298Z,3.57
2023-02-17T16:39:21.232Z,3.63
2023-02-17T16:41:49.099Z,1.63
2023-02-17T16:44:17.834Z,1.57
2023-02-17T16:46:50.226Z,1.23
2023-02-17T16:49:25.764Z,2.10
2023-02-17T16:51:52.783Z,1.23
2023-02-17T16:54:19.741Z,1.77
2023-02-17T16:56:49.364Z,1.47
2023-02-17T16:59:18.761Z,1.20
2023-02-17T17:01:46.461Z,2.20
2023-02-17T17:04:15.548Z,1.87
2023-02-17T17:06:49.121Z,1.40
2023-02-17T17:09:18.526Z,1.37
2023-02-17T17:11:48.275Z,1.43
2023-02-17T17:14:15.129Z,1.97
2023-02-17T17:16:45.359Z,1.63
2023-02-17T17:19:13.435Z,3.80
2023-02-17T17:21:40.208Z,1.80
2023-02-17T17:24:06.899Z,1.80
2023-02-17T17:26:36.772Z,1.77
2023-02-17T17:29:03.980Z,1.73
2023-02-17T17:31:30.914Z,1.60
2023-02-17T17:33:57.660Z,2.70
2023-02-17T17:36:36.403Z,1.60
2023-02-17T17:39:05.161Z,2.70
2023-02-17T17:41:35.146Z,2.60
2023-02-17T17:44:01.934Z,1.80
2023-02-17T17:46:31.351Z,1.80
2023-02-17T17:49:00.185Z,2.33
2023-02-17T17:51:29.209Z,2.10
2023-02-17T17:53:56.927Z,2.30
2023-02-17T17:56:29.842Z,2.10
2023-02-17T17:58:58.337Z,4.20
2023-02-17T18:01:27.937Z,2.40
2023-02-17T18:03:55.317Z,6.30
2023-02-17T18:06:26.105Z,2.27
2023-02-17T18:08:59.224Z,2.50
2023-02-17T18:11:25.898Z,2.67
2023-02-17T18:13:56.685Z,2.90
2023-02-17T18:16:25.297Z,3.53
2023-02-17T18:18:53.509Z,2.83
2023-02-17T18:21:20.417Z,3.03
2023-02-17T18:23:47.198Z,3.03
2023-02-17T18:26:15.245Z,4.17
2023-02-17T18:28:47.232Z,3.53
2023-02-17T18:31:15.726Z,3.13
2023-02-17T18:33:43.274Z,3.47
2023-02-17T18:36:17.414Z,3.40
2023-02-17T18:38:46.313Z,5.40
2023-02-17T18:41:30.899Z,4.73
2023-02-17T18:44:00.161Z,3.57
2023-02-17T18:46:27.599Z,4.43
2023-02-17T18:48:59.548Z,4.00
2023-02-17T18:51:27.590Z,4.50
2023-02-17T18:53:56.284Z,4.70
2023-02-17T18:56:26.992Z,4.60
2023-02-17T18:58:57.047Z,4.33
2023-02-17T19:01:36.098Z,3.83
2023-02-17T19:04:04.748Z,4.33
2023-02-17T19:06:34.622Z,4.03
2023-02-17T19:09:02.827Z,4.33
2023-02-17T19:11:29.685Z,3.97
2023-02-17T19:13:56.511Z,4.40
2023-02-17T19:16:27.082Z,14.00
2023-02-17T19:18:54.849Z,4.10
2023-02-17T19:21:22.512Z,4.37
2023-02-17T19:23:50.150Z,3.90
2023-02-17T19:26:18.562Z,4.27
2023-02-17T19:28:45.479Z,4.77
2023-02-17T19:31:21.086Z,4.10
2023-02-17T19:33:47.921Z,3.93
2023-02-17T19:36:18.261Z,4.30
2023-02-17T19:38:45.965Z,4.03
2023-02-17T19:41:13.411Z,4.13
2023-02-17T19:43:40.988Z,5.57
2023-02-17T19:46:08.259Z,3.63
2023-02-17T19:48:35.070Z,4.00
2023-02-17T19:51:06.132Z,3.50
2023-02-17T19:53:33.587Z,3.70
2023-02-17T19:56:12.086Z,3.77
2023-02-17T19:58:40.145Z,5.50
2023-02-17T20:01:12.526Z,4.57
2023-02-17T20:03:39.627Z,3.93
2023-02-17T20:06:17.193Z,3.47
2023-02-17T20:08:45.725Z,3.23
2023-02-17T20:11:12.963Z,5.73
2023-02-17T20:13:46.060Z,3.10
2023-02-17T20:16:15.188Z,3.40
2023-02-17T20:18:44.708Z,3.63
2023-02-17T20:21:15.107Z,3.30
2023-02-17T20:23:42.026Z,3.37
2023-02-17T20:26:12.131Z,3.70
2023-02-17T20:28:39.091Z,3.63
2023-02-17T20:31:06.689Z,3.30
2023-02-17T20:33:33.769Z,2.83
2023-02-17T20:36:00.704Z,3.17
2023-02-17T20:38:27.677Z,2.90
2023-02-17T20:40:54.994Z,3.00
2023-02-17T20:43:21.888Z,3.17
2023-02-17T20:45:52.001Z,3.07
2023-02-17T20:48:19.751Z,2.77
2023-02-17T20:50:46.579Z,2.77
2023-02-17T20:53:13.465Z,4.17
2023-02-17T20:55:40.153Z,2.93
2023-02-17T20:58:07.283Z,2.87
2023-02-17T21:00:34.080Z,3.00
2023-02-17T21:03:00.910Z,2.90
2023-02-17T21:05:27.608Z,3.47
2023-02-17T21:07:56.270Z,3.80
2023-02-17T21:10:26.477Z,4.03
2023-02-17T21:12:54.942Z,2.80
2023-02-17T21:15:22.297Z,2.97
2023-02-17T21:17:49.593Z,2.70
2023-02-17T21:20:19.645Z,3.00
2023-02-17T21:22:46.386Z,3.10
2023-02-17T21:25:13.548Z,2.80
2023-02-17T21:27:40.239Z,2.80
2023-02-17T21:30:08.578Z,3.23
2023-02-17T21:32:36.664Z,3.40
2023-02-17T21:35:05.683Z,3.00
2023-02-17T21:37:32.489Z,2.83
2023-02-17T21:39:59.202Z,3.10
2023-02-17T21:42:45.862Z,2.83
2023-02-17T21:45:12.854Z,3.20
2023-02-17T21:47:39.531Z,3.13
2023-02-17T21:50:07.312Z,4.27
2023-02-17T21:52:34.064Z,3.13
2023-02-17T21:55:01.503Z,3.10
2023-02-17T21:57:28.211Z,2.90
2023-02-17T21:59:54.912Z,3.07
2023-02-17T22:02:21.628Z,3.70
2023-02-17T22:04:48.252Z,3.40
2023-02-17T22:07:14.886Z,3.50
2023-02-17T22:09:44.321Z,3.50
2023-02-17T22:12:10.946Z,3.27
2023-02-17T22:14:37.638Z,3.40
2023-02-17T22:17:04.291Z,3.90
2023-02-17T22:19:31.652Z,4.00
2023-02-17T22:21:58.700Z,3.77
2023-02-17T22:24:27.113Z,3.90
2023-02-17T22:26:54.890Z,4.17
2023-02-17T22:29:21.571Z,4.33
2023-02-17T22:31:50.268Z,4.30
2023-02-17T22:34:17.209Z,5.63
2023-02-17T22:36:43.960Z,4.13
2023-02-17T22:39:10.655Z,3.97
2023-02-17T22:41:38.810Z,4.20
2023-02-17T22:44:05.621Z,4.00
2023-02-17T22:46:32.572Z,4.53
2023-02-17T22:49:02.788Z,4.47
2023-02-17T22:51:36.237Z,6.63
2023-02-17T22:54:03.565Z,3.50
2023-02-17T22:56:30.414Z,4.00
2023-02-17T22:59:00.597Z,3.83
2023-02-17T23:01:29.063Z,4.17
2023-02-17T23:03:55.714Z,3.53
2023-02-17T23:06:31.734Z,4.07
2023-02-17T23:09:00.328Z,3.47
2023-02-17T23:11:49.743Z,3.60
2023-02-17T23:14:28.733Z,3.73
2023-02-17T23:17:03.065Z,3.47
2023-02-17T23:19:30.357Z,4.03
2023-02-17T23:22:00.369Z,3.60
2023-02-17T23:24:30.099Z,3.70
2023-02-17T23:26:58.254Z,3.27
2023-02-17T23:29:25.332Z,3.40
2023-02-17T23:31:54.860Z,4.07
2023-02-17T23:34:21.570Z,3.87
2023-02-17T23:36:48.317Z,4.43
2023-02-17T23:39:16.346Z,3.77
2023-02-17T23:41:43.084Z,3.73
2023-02-17T23:44:11.537Z,3.70
2023-02-17T23:46:39.536Z,3.60
2023-02-17T23:49:06.232Z,3.30
2023-02-17T23:51:33.293Z,4.67
2023-02-17T23:54:00.412Z,4.27
2023-02-17T23:56:32.744Z,3.87
2023-02-17T23:59:00.117Z,3.70
